Alyeska Resort
Max's Hourly Weather Roundup
ALYESKA_MAX 7/31/2015
Click Here for Graph

        DATE  TIME   Air  Wind  Wind  Wind  BATT   Rel
                    Temp   Spd   Dir  Gust  Volt  Hum%
                      F   MPH   AVG   MPH   AVG   AVG

   7/31/2015 13:00    52     2   168     9 13.73    98
   7/31/2015 12:00    51     1   132     6 13.71    98
   7/31/2015 11:00    51     1   143     4 13.66    98
   7/31/2015 10:00    50     2   189     6 13.61    96
   7/31/2015 09:00    49     3   259     6 13.60    96
   7/31/2015 08:00    49     3           6 13.59    97
   7/31/2015 07:00    48     3   230     6 12.89    99
   7/31/2015 06:00    48     3   174     8 12.79    99
   7/31/2015 05:00    48     2   141     5 12.81   100
   7/31/2015 04:00    48     2   137     4 12.83   100
   7/31/2015 03:00    49     2   181     5 12.86   100
   7/31/2015 02:00    49     3   264    10 12.89    99
   7/31/2015 01:00    50     2   218     6 12.92    98
   7/30/2015 24:00    50     4   172     7 12.98    99
   7/30/2015 23:00    51     2   242     5 13.11    97
   7/30/2015 22:00    52     4   171     9 13.58    95
   7/30/2015 21:00    55     4   218     7 13.96    90
   7/30/2015 20:00    53     4   239    10 13.99    92
   7/30/2015 19:00    52     9   197    16 13.90    96
   7/30/2015 18:00    55     6   174    14 13.88    96
   7/30/2015 17:00    53     5   205    12 13.89    99
   7/30/2015 16:00    51     5   198    13 13.88   100
   7/30/2015 15:00    51     5   190    12 13.81   100
   7/30/2015 14:00    52     2   208     8 13.74    99


Click Here for Graph